createdAt,value
2017-09-07T00:00:20.424Z,13.68
2017-09-07T00:01:21.144Z,13.70
2017-09-07T00:02:21.865Z,13.63
2017-09-07T00:03:22.586Z,13.67
2017-09-07T00:04:23.313Z,13.65
2017-09-07T00:05:24.030Z,13.62
2017-09-07T00:06:24.776Z,13.67
2017-09-07T00:07:25.495Z,13.63
2017-09-07T00:08:26.218Z,13.70
2017-09-07T00:09:26.938Z,13.68
2017-09-07T00:10:27.668Z,13.59
2017-09-07T00:11:28.383Z,13.56
2017-09-07T00:12:29.103Z,13.65
2017-09-07T00:13:29.829Z,13.56
2017-09-07T00:14:30.551Z,13.68
2017-09-07T00:15:31.265Z,13.65
2017-09-07T00:16:31.988Z,13.60
2017-09-07T00:17:32.709Z,13.60
2017-09-07T00:18:33.431Z,13.62
2017-09-07T00:19:34.178Z,13.63
2017-09-07T00:20:34.894Z,13.62
2017-09-07T00:21:35.640Z,13.60
2017-09-07T00:22:36.359Z,13.62
2017-09-07T00:23:37.104Z,13.59
2017-09-07T00:24:37.821Z,13.59
2017-09-07T00:25:38.544Z,13.62
2017-09-07T00:26:39.262Z,13.65
2017-09-07T00:27:39.983Z,13.62
2017-09-07T00:28:40.726Z,13.60
2017-09-07T00:29:41.446Z,13.59
2017-09-07T00:30:42.168Z,13.57
2017-09-07T00:31:42.887Z,13.52
2017-09-07T00:32:43.607Z,13.57
2017-09-07T00:33:44.328Z,13.46
2017-09-07T00:34:45.048Z,13.47
2017-09-07T00:35:45.764Z,13.57
2017-09-07T00:36:46.484Z,13.53
2017-09-07T00:37:47.477Z,13.62
2017-09-07T00:38:48.197Z,13.56
2017-09-07T00:39:48.913Z,13.52
2017-09-07T00:40:49.636Z,13.62
2017-09-07T00:41:50.353Z,13.50
2017-09-07T00:42:51.072Z,13.53
2017-09-07T00:43:51.816Z,13.59
2017-09-07T00:44:52.534Z,13.62
2017-09-07T00:45:53.256Z,13.49
2017-09-07T00:46:54.000Z,13.56
2017-09-07T00:47:54.713Z,13.53
2017-09-07T00:48:55.435Z,13.60
2017-09-07T00:49:56.152Z,13.47
2017-09-07T00:50:56.874Z,13.52
2017-09-07T00:51:57.591Z,13.46
2017-09-07T00:52:58.331Z,13.53
2017-09-07T00:53:59.051Z,13.62
2017-09-07T00:54:59.772Z,13.52
2017-09-07T00:56:00.491Z,13.54
2017-09-07T00:57:01.214Z,13.52
2017-09-07T00:58:01.932Z,13.57
2017-09-07T00:59:02.656Z,13.59
2017-09-07T01:00:03.374Z,13.59
2017-09-07T01:01:04.116Z,13.59
2017-09-07T01:02:04.835Z,13.65
2017-09-07T01:03:05.554Z,13.59
2017-09-07T01:04:06.273Z,13.67
2017-09-07T01:05:06.994Z,13.70
2017-09-07T01:06:07.711Z,13.59
2017-09-07T01:07:08.452Z,13.57
2017-09-07T01:08:09.190Z,13.67
2017-09-07T01:09:09.907Z,13.70
2017-09-07T01:10:10.625Z,13.70
2017-09-07T01:11:11.343Z,13.67
2017-09-07T01:12:12.063Z,13.60
2017-09-07T01:13:12.800Z,13.63
2017-09-07T01:14:13.522Z,13.65
2017-09-07T01:15:14.239Z,13.65
2017-09-07T01:16:14.957Z,13.74
2017-09-07T01:17:15.675Z,13.63
2017-09-07T01:18:16.408Z,13.67
2017-09-07T01:19:17.115Z,13.63
2017-09-07T01:20:17.834Z,13.72
2017-09-07T01:21:18.574Z,13.70
2017-09-07T01:22:19.293Z,13.63
2017-09-07T01:23:20.011Z,13.74
2017-09-07T01:24:20.732Z,13.70
2017-09-07T01:25:21.448Z,13.68
2017-09-07T01:26:22.167Z,13.65
2017-09-07T01:27:22.889Z,13.71
2017-09-07T01:28:23.604Z,13.77
2017-09-07T01:29:24.325Z,13.74
2017-09-07T01:30:25.066Z,13.74
2017-09-07T01:31:25.785Z,13.72
2017-09-07T01:32:26.504Z,13.67
2017-09-07T01:33:27.222Z,13.68
2017-09-07T01:34:27.970Z,13.77
2017-09-07T01:35:28.680Z,13.72
2017-09-07T01:36:29.402Z,13.74
2017-09-07T01:37:30.140Z,13.74
2017-09-07T01:38:30.860Z,13.74
2017-09-07T01:39:31.582Z,13.68
2017-09-07T01:40:32.302Z,13.68
2017-09-07T01:41:33.039Z,13.68
2017-09-07T01:42:33.761Z,13.74
2017-09-07T01:43:34.479Z,13.65
2017-09-07T01:44:35.199Z,13.67
2017-09-07T01:45:35.918Z,13.65
2017-09-07T01:46:36.637Z,13.74
2017-09-07T01:47:37.355Z,13.77
2017-09-07T01:48:38.093Z,13.63
2017-09-07T01:49:38.813Z,13.65
2017-09-07T01:50:39.535Z,13.60
2017-09-07T01:51:40.251Z,13.63
2017-09-07T01:52:40.992Z,13.67
2017-09-07T01:53:41.708Z,13.68
2017-09-07T01:54:42.447Z,13.63
2017-09-07T01:55:43.168Z,13.68
2017-09-07T01:56:43.886Z,13.62
2017-09-07T01:57:44.603Z,13.47
2017-09-07T01:58:45.322Z,13.68
2017-09-07T01:59:46.041Z,13.52
2017-09-07T02:00:46.781Z,13.47
2017-09-07T02:01:47.499Z,13.49
2017-09-07T02:02:48.220Z,13.46
2017-09-07T02:03:48.939Z,13.50
2017-09-07T02:04:49.659Z,13.49
2017-09-07T02:05:50.379Z,13.41
2017-09-07T02:06:51.096Z,13.42
2017-09-07T02:07:51.816Z,13.49
2017-09-07T02:08:52.554Z,13.46
2017-09-07T02:09:53.275Z,13.41
2017-09-07T02:10:53.991Z,13.38
2017-09-07T02:11:54.727Z,13.41
2017-09-07T02:12:55.468Z,13.39
2017-09-07T02:13:56.188Z,13.42
2017-09-07T02:14:56.905Z,13.42
2017-09-07T02:15:57.625Z,13.42
2017-09-07T02:16:58.344Z,13.25
2017-09-07T02:17:59.065Z,13.44
2017-09-07T02:18:59.784Z,13.42
2017-09-07T02:20:00.504Z,13.44
2017-09-07T02:21:01.224Z,13.39
2017-09-07T02:22:01.943Z,13.44
2017-09-07T02:23:02.663Z,13.38
2017-09-07T02:24:03.385Z,13.38
2017-09-07T02:25:04.100Z,13.37
2017-09-07T02:26:04.821Z,13.35
2017-09-07T02:27:05.559Z,13.33
2017-09-07T02:28:06.276Z,13.31
2017-09-07T02:29:07.017Z,13.31
2017-09-07T02:30:07.737Z,13.42
2017-09-07T02:31:08.457Z,13.42
2017-09-07T02:32:09.177Z,13.37
2017-09-07T02:33:09.895Z,13.47
2017-09-07T02:34:10.636Z,13.49
2017-09-07T02:35:11.354Z,13.46
2017-09-07T02:36:12.073Z,13.49
2017-09-07T02:37:12.794Z,13.42
2017-09-07T02:38:13.512Z,13.47
2017-09-07T02:39:14.232Z,13.41
2017-09-07T02:40:14.970Z,13.46
2017-09-07T02:41:15.692Z,13.39
2017-09-07T02:42:16.410Z,13.41
2017-09-07T02:43:17.131Z,13.44
2017-09-07T02:44:17.872Z,13.37
2017-09-07T02:45:18.614Z,13.46
2017-09-07T02:46:19.332Z,13.44
2017-09-07T02:47:20.050Z,13.54
2017-09-07T02:48:20.792Z,13.50
2017-09-07T02:49:21.531Z,13.50
2017-09-07T02:50:22.271Z,13.46
2017-09-07T02:51:22.993Z,13.49
2017-09-07T02:52:23.711Z,13.42
2017-09-07T02:53:24.452Z,13.47
2017-09-07T02:54:25.192Z,13.41
2017-09-07T02:55:25.916Z,13.42
2017-09-07T02:56:26.651Z,13.42
2017-09-07T02:57:27.370Z,13.39
2017-09-07T02:58:28.090Z,13.50
2017-09-07T02:59:28.810Z,13.46
2017-09-07T03:00:29.550Z,13.49
2017-09-07T03:01:30.270Z,13.49
2017-09-07T03:02:30.990Z,13.46
2017-09-07T03:03:31.710Z,13.41
2017-09-07T03:04:32.431Z,13.41
2017-09-07T03:05:33.174Z,13.38
2017-09-07T03:06:33.913Z,13.49
2017-09-07T03:07:34.653Z,13.38
2017-09-07T03:08:35.373Z,13.37
2017-09-07T03:09:36.130Z,13.31
2017-09-07T03:10:36.861Z,13.38
2017-09-07T03:11:37.578Z,13.42
2017-09-07T03:12:38.321Z,13.35
2017-09-07T03:13:39.038Z,13.38
2017-09-07T03:14:39.757Z,13.37
2017-09-07T03:15:40.478Z,13.41
2017-09-07T03:16:41.216Z,13.28
2017-09-07T03:17:41.936Z,13.33
2017-09-07T03:18:42.655Z,13.33
2017-09-07T03:19:43.396Z,13.37
2017-09-07T03:20:44.138Z,13.42
2017-09-07T03:21:44.859Z,13.28
2017-09-07T03:22:45.577Z,13.31
2017-09-07T03:23:46.297Z,13.23
2017-09-07T03:24:47.017Z,13.22
2017-09-07T03:25:47.734Z,13.35
2017-09-07T03:26:48.474Z,13.39
2017-09-07T03:27:49.195Z,13.41
2017-09-07T03:28:49.933Z,13.41
2017-09-07T03:29:50.655Z,13.30
2017-09-07T03:30:51.400Z,13.35
2017-09-07T03:31:52.112Z,13.38
2017-09-07T03:32:52.834Z,13.22
2017-09-07T03:33:53.554Z,13.38
2017-09-07T03:34:54.275Z,13.25
2017-09-07T03:35:54.993Z,13.23
2017-09-07T03:36:55.713Z,13.42
2017-09-07T03:37:56.432Z,13.35
2017-09-07T03:38:57.174Z,13.38
2017-09-07T03:39:57.894Z,13.44
2017-09-07T03:40:58.633Z,13.37
2017-09-07T03:41:59.352Z,13.42
2017-09-07T03:43:00.093Z,13.39
2017-09-07T03:44:00.813Z,13.22
2017-09-07T03:45:01.533Z,13.44
2017-09-07T03:46:02.253Z,13.37
2017-09-07T03:47:02.995Z,13.44
2017-09-07T03:48:03.712Z,13.42
2017-09-07T03:49:04.434Z,13.33
2017-09-07T03:50:05.151Z,13.44
2017-09-07T03:51:05.874Z,13.35
2017-09-07T03:52:06.615Z,13.38
2017-09-07T03:53:07.334Z,13.50
2017-09-07T03:54:08.055Z,13.39
2017-09-07T03:55:08.777Z,13.35
2017-09-07T03:56:09.517Z,13.39
2017-09-07T03:57:10.260Z,13.44
2017-09-07T03:58:10.978Z,13.39
2017-09-07T03:59:11.695Z,13.39
2017-09-07T04:00:12.415Z,13.39
2017-09-07T04:01:13.154Z,13.37
2017-09-07T04:02:13.895Z,13.49
2017-09-07T04:03:14.614Z,13.53
2017-09-07T04:04:15.350Z,13.46
2017-09-07T04:05:16.093Z,13.41
2017-09-07T04:06:16.834Z,13.38
2017-09-07T04:07:17.552Z,13.35
2017-09-07T04:08:18.272Z,13.46
2017-09-07T04:09:19.012Z,13.44
2017-09-07T04:10:19.733Z,13.46
2017-09-07T04:11:20.451Z,13.42
2017-09-07T04:12:21.173Z,13.41
2017-09-07T04:13:21.890Z,13.49
2017-09-07T04:14:22.612Z,13.41
2017-09-07T04:15:23.334Z,13.50
2017-09-07T04:16:24.054Z,13.44
2017-09-07T04:17:24.773Z,13.41
2017-09-07T04:18:25.492Z,13.33
2017-09-07T04:19:26.213Z,13.38
2017-09-07T04:20:26.930Z,13.52
2017-09-07T04:21:27.670Z,13.46
2017-09-07T04:22:28.391Z,13.49
2017-09-07T04:23:29.133Z,13.49
2017-09-07T04:24:29.852Z,13.46
2017-09-07T04:25:30.570Z,13.52
2017-09-07T04:26:31.293Z,13.49
2017-09-07T04:27:32.009Z,13.46
2017-09-07T04:28:32.731Z,13.46
2017-09-07T04:29:33.449Z,13.47
2017-09-07T04:30:34.169Z,13.44
2017-09-07T04:31:34.889Z,13.49
2017-09-07T04:32:35.608Z,13.46
2017-09-07T04:33:36.331Z,13.53
2017-09-07T04:34:37.050Z,13.47
2017-09-07T04:35:37.772Z,13.46
2017-09-07T04:36:38.510Z,13.47
2017-09-07T04:37:39.233Z,13.46
2017-09-07T04:38:39.952Z,13.46
2017-09-07T04:39:40.692Z,13.50
2017-09-07T04:40:41.413Z,13.46
2017-09-07T04:41:42.174Z,13.49
2017-09-07T04:42:42.875Z,13.54
2017-09-07T04:43:43.595Z,13.44
2017-09-07T04:44:44.317Z,13.42
2017-09-07T04:45:45.039Z,13.49
2017-09-07T04:46:45.761Z,13.37
2017-09-07T04:47:46.479Z,13.49
2017-09-07T04:48:47.201Z,13.41
2017-09-07T04:49:47.943Z,13.33
2017-09-07T04:50:48.687Z,13.35
2017-09-07T04:51:49.411Z,13.42
2017-09-07T04:52:50.130Z,13.44
2017-09-07T04:53:50.872Z,13.46
2017-09-07T04:54:51.594Z,13.50
2017-09-07T04:55:52.317Z,13.46
2017-09-07T04:56:53.043Z,13.35
2017-09-07T04:57:53.780Z,13.38
2017-09-07T04:58:54.527Z,13.44
2017-09-07T04:59:55.265Z,13.44
2017-09-07T05:00:56.010Z,13.46
2017-09-07T05:01:56.733Z,13.54
2017-09-07T05:02:57.454Z,13.33
2017-09-07T05:03:58.176Z,13.47
2017-09-07T05:04:58.900Z,13.47
2017-09-07T05:05:59.629Z,13.46
2017-09-07T05:07:00.344Z,13.50
2017-09-07T05:08:01.068Z,13.49
2017-09-07T05:09:01.811Z,13.53
2017-09-07T05:10:02.554Z,13.46
2017-09-07T05:11:03.281Z,13.47
2017-09-07T05:12:04.007Z,13.56
2017-09-07T05:13:04.725Z,13.47
2017-09-07T05:14:05.452Z,13.54
2017-09-07T05:15:06.192Z,13.49
2017-09-07T05:16:06.918Z,13.46
2017-09-07T05:17:07.638Z,13.65
2017-09-07T05:18:08.363Z,13.54
2017-09-07T05:19:09.083Z,13.46
2017-09-07T05:20:09.808Z,13.54
2017-09-07T05:21:10.528Z,13.50
2017-09-07T05:22:11.275Z,13.50
2017-09-07T05:23:12.000Z,13.53
2017-09-07T05:24:12.722Z,13.53
2017-09-07T05:25:13.446Z,13.57
2017-09-07T05:26:14.166Z,13.62
2017-09-07T05:27:14.890Z,13.59
2017-09-07T05:28:15.633Z,13.60
2017-09-07T05:29:16.357Z,13.60
2017-09-07T05:30:17.082Z,13.60
2017-09-07T05:31:17.803Z,13.60
2017-09-07T05:32:18.548Z,13.60
2017-09-07T05:33:19.268Z,13.59
2017-09-07T05:34:19.992Z,13.59
2017-09-07T05:35:20.714Z,13.65
2017-09-07T05:36:21.439Z,13.56
2017-09-07T05:37:22.163Z,13.68
2017-09-07T05:38:22.887Z,13.71
2017-09-07T05:39:23.618Z,13.65
2017-09-07T05:40:24.340Z,13.65
2017-09-07T05:41:25.080Z,13.70
2017-09-07T05:42:25.804Z,13.68
2017-09-07T05:43:26.526Z,13.71
2017-09-07T05:44:27.248Z,13.56
2017-09-07T05:45:27.976Z,13.67
2017-09-07T05:46:28.693Z,13.57
2017-09-07T05:47:29.419Z,13.59
2017-09-07T05:48:30.161Z,13.70
2017-09-07T05:49:30.882Z,13.60
2017-09-07T05:50:31.608Z,13.63
2017-09-07T05:51:32.328Z,13.60
2017-09-07T05:52:33.053Z,13.65
2017-09-07T05:53:33.778Z,13.67
2017-09-07T05:54:34.498Z,13.72
2017-09-07T05:55:35.223Z,13.60
2017-09-07T05:56:35.949Z,13.71
2017-09-07T05:57:36.693Z,13.63
2017-09-07T05:58:37.420Z,13.63
2017-09-07T05:59:38.145Z,13.72
2017-09-07T06:00:38.869Z,13.70
2017-09-07T06:01:39.592Z,13.70
2017-09-07T06:02:40.315Z,13.77
2017-09-07T06:03:41.039Z,13.79
2017-09-07T06:04:41.781Z,13.83
2017-09-07T06:05:42.504Z,13.79
2017-09-07T06:06:43.229Z,13.79
2017-09-07T06:07:43.950Z,13.90
2017-09-07T06:08:44.675Z,13.93
2017-09-07T06:09:45.401Z,13.87
2017-09-07T06:10:46.127Z,13.85
2017-09-07T06:11:46.852Z,13.96
2017-09-07T06:12:47.597Z,13.92
2017-09-07T06:13:48.344Z,13.90
2017-09-07T06:14:49.067Z,14.05
2017-09-07T06:15:49.792Z,14.07
2017-09-07T06:16:50.516Z,13.97
2017-09-07T06:17:51.272Z,14.18
2017-09-07T06:18:51.989Z,14.28
2017-09-07T06:19:52.713Z,14.53
2017-09-07T06:20:53.441Z,14.55
2017-09-07T06:21:54.165Z,14.66
2017-09-07T06:22:54.889Z,14.81
2017-09-07T06:23:55.616Z,14.89
2017-09-07T06:24:56.360Z,14.88
2017-09-07T06:25:57.089Z,14.81
2017-09-07T06:26:57.815Z,14.82
2017-09-07T06:27:58.541Z,14.62
2017-09-07T06:28:59.268Z,14.50
2017-09-07T06:29:59.995Z,14.37
2017-09-07T06:31:00.718Z,14.30
2017-09-07T06:32:01.463Z,14.33
2017-09-07T06:33:02.210Z,14.25
2017-09-07T06:34:02.936Z,14.25
2017-09-07T06:35:03.681Z,14.28
2017-09-07T06:36:04.407Z,14.29
2017-09-07T06:37:05.133Z,14.30
2017-09-07T06:38:05.860Z,14.26
2017-09-07T06:39:06.585Z,14.36
2017-09-07T06:40:07.310Z,14.25
2017-09-07T06:41:08.036Z,14.29
2017-09-07T06:42:08.762Z,14.29
2017-09-07T06:43:09.490Z,14.44
2017-09-07T06:44:10.218Z,14.32
2017-09-07T06:45:10.947Z,14.35
2017-09-07T06:46:11.686Z,14.33
2017-09-07T06:47:12.416Z,14.44
2017-09-07T06:48:13.141Z,14.30
2017-09-07T06:49:13.869Z,14.30
2017-09-07T06:50:14.596Z,14.28
2017-09-07T06:51:15.323Z,14.41
2017-09-07T06:52:16.050Z,14.37
2017-09-07T06:53:16.778Z,14.55
2017-09-07T06:54:17.505Z,14.51
2017-09-07T06:55:18.229Z,14.54
2017-09-07T06:56:18.962Z,14.50
2017-09-07T06:57:19.685Z,14.50
2017-09-07T06:58:20.412Z,14.54
2017-09-07T06:59:21.158Z,14.55
2017-09-07T07:00:21.889Z,14.54
2017-09-07T07:01:22.612Z,14.55
2017-09-07T07:02:23.338Z,14.65
2017-09-07T07:03:24.066Z,14.63
2017-09-07T07:04:24.794Z,14.51
2017-09-07T07:05:25.518Z,14.51
2017-09-07T07:06:26.245Z,14.51
2017-09-07T07:07:26.971Z,14.53
2017-09-07T07:08:27.700Z,14.48
2017-09-07T07:09:28.443Z,14.51
2017-09-07T07:10:29.170Z,14.62
2017-09-07T07:11:29.895Z,14.53
2017-09-07T07:12:30.628Z,14.53
2017-09-07T07:13:31.352Z,14.62
2017-09-07T07:14:32.093Z,14.59
2017-09-07T07:15:32.821Z,14.58
2017-09-07T07:16:33.547Z,14.69
2017-09-07T07:17:34.296Z,14.62
2017-09-07T07:18:35.044Z,14.69
2017-09-07T07:19:35.771Z,14.69
2017-09-07T07:20:36.494Z,14.79
2017-09-07T07:21:37.225Z,14.79
2017-09-07T07:22:37.949Z,14.77
2017-09-07T07:23:38.676Z,14.82
2017-09-07T07:24:39.425Z,14.78
2017-09-07T07:25:40.154Z,14.88
2017-09-07T07:26:40.876Z,14.79
2017-09-07T07:27:41.603Z,14.85
2017-09-07T07:28:42.328Z,14.94
2017-09-07T07:29:43.078Z,14.94
2017-09-07T07:30:43.809Z,15.02
2017-09-07T07:31:44.530Z,15.11
2017-09-07T07:32:45.281Z,15.15
2017-09-07T07:33:46.004Z,15.10
2017-09-07T07:34:46.731Z,15.18
2017-09-07T07:35:47.464Z,15.15
2017-09-07T07:36:48.192Z,15.14
2017-09-07T07:37:48.919Z,15.10
2017-09-07T07:38:49.647Z,15.00
2017-09-07T07:39:50.377Z,14.99
2017-09-07T07:40:51.106Z,15.00
2017-09-07T07:41:51.863Z,15.02
2017-09-07T07:42:52.581Z,14.99
2017-09-07T07:43:53.306Z,14.96
2017-09-07T07:44:54.040Z,14.96
2017-09-07T07:45:54.768Z,15.07
2017-09-07T07:46:55.497Z,15.15
2017-09-07T07:47:56.228Z,15.10
2017-09-07T07:48:56.950Z,15.19
2017-09-07T07:49:57.697Z,15.22
2017-09-07T07:50:58.427Z,15.25
2017-09-07T07:51:59.155Z,15.22
2017-09-07T07:52:59.930Z,15.22
2017-09-07T07:54:00.656Z,15.29
2017-09-07T07:55:01.427Z,15.29
2017-09-07T07:56:02.191Z,15.33
2017-09-07T07:57:02.918Z,15.40
2017-09-07T07:58:03.644Z,15.52
2017-09-07T07:59:04.376Z,15.42
2017-09-07T08:00:05.111Z,15.44
2017-09-07T08:01:05.835Z,15.44
2017-09-07T08:02:06.562Z,15.40
2017-09-07T08:03:07.287Z,15.42
2017-09-07T08:04:08.055Z,15.36
2017-09-07T08:05:08.803Z,15.42
2017-09-07T08:06:09.553Z,15.49
2017-09-07T08:07:10.284Z,15.46
2017-09-07T08:08:11.010Z,15.55
2017-09-07T08:09:11.756Z,15.43
2017-09-07T08:10:12.486Z,15.57
2017-09-07T08:11:13.212Z,15.37
2017-09-07T08:12:13.939Z,15.40
2017-09-07T08:13:14.667Z,15.49
2017-09-07T08:14:15.395Z,15.49
2017-09-07T08:15:16.120Z,15.42
2017-09-07T08:16:16.847Z,15.44
2017-09-07T08:17:17.570Z,15.57
2017-09-07T08:18:18.304Z,15.54
2017-09-07T08:19:19.031Z,15.54
2017-09-07T08:20:19.767Z,15.57
2017-09-07T08:21:20.494Z,15.62
2017-09-07T08:22:21.288Z,15.64
2017-09-07T08:23:22.091Z,15.75
2017-09-07T08:24:22.848Z,15.75
2017-09-07T08:25:23.625Z,16.09
2017-09-07T08:26:24.415Z,16.50
2017-09-07T08:27:25.172Z,16.76
2017-09-07T08:28:25.979Z,17.04
2017-09-07T08:29:26.763Z,16.91
2017-09-07T08:30:27.550Z,16.96
2017-09-07T08:31:28.318Z,16.99
2017-09-07T08:32:29.091Z,17.06
2017-09-07T08:33:29.881Z,16.89
2017-09-07T08:34:30.655Z,16.96
2017-09-07T08:35:31.418Z,16.89
2017-09-07T08:36:32.218Z,16.79
2017-09-07T08:37:32.987Z,16.69
2017-09-07T08:38:33.789Z,16.68
2017-09-07T08:39:34.583Z,16.61
2017-09-07T08:40:35.393Z,16.64
2017-09-07T08:41:36.128Z,16.64
2017-09-07T08:42:36.888Z,16.57
2017-09-07T08:43:37.681Z,16.71
2017-09-07T08:44:38.420Z,16.87
2017-09-07T08:45:39.199Z,16.90
2017-09-07T08:46:39.966Z,16.91
2017-09-07T08:47:40.774Z,17.01
2017-09-07T08:48:41.589Z,16.83
2017-09-07T08:49:42.381Z,16.69
2017-09-07T08:50:43.185Z,16.83
2017-09-07T08:51:43.959Z,16.71
2017-09-07T08:52:44.686Z,16.65
2017-09-07T08:53:45.458Z,16.76
2017-09-07T08:54:46.290Z,16.78
2017-09-07T08:55:47.076Z,16.90
2017-09-07T08:56:47.812Z,17.04
2017-09-07T08:57:48.580Z,17.29
2017-09-07T08:58:49.370Z,17.09
2017-09-07T08:59:50.164Z,17.19
2017-09-07T09:00:50.951Z,17.23
2017-09-07T09:01:51.737Z,17.05
2017-09-07T09:02:52.510Z,16.93
2017-09-07T09:03:53.295Z,16.94
2017-09-07T09:04:54.039Z,16.96
2017-09-07T09:05:54.812Z,17.08
2017-09-07T09:06:55.603Z,17.29
2017-09-07T09:07:56.388Z,17.54
2017-09-07T09:08:57.180Z,17.42
2017-09-07T09:09:57.911Z,17.27
2017-09-07T09:10:58.644Z,17.31
2017-09-07T09:11:59.377Z,17.52
2017-09-07T09:13:00.115Z,17.59
2017-09-07T09:14:00.844Z,17.60
2017-09-07T09:15:01.593Z,17.67
2017-09-07T09:16:02.344Z,17.64
2017-09-07T09:17:03.085Z,17.85
2017-09-07T09:18:03.812Z,18.08
2017-09-07T09:19:04.557Z,18.01
2017-09-07T09:20:05.293Z,18.15
2017-09-07T09:21:06.027Z,18.04
2017-09-07T09:22:06.762Z,17.97
2017-09-07T09:23:07.494Z,18.04
2017-09-07T09:24:08.249Z,18.50
2017-09-07T09:25:08.982Z,18.77
2017-09-07T09:26:09.715Z,18.73
2017-09-07T09:27:10.450Z,18.77
2017-09-07T09:28:11.207Z,18.75
2017-09-07T09:29:11.938Z,18.37
2017-09-07T09:30:12.676Z,18.38
2017-09-07T09:31:13.407Z,18.35
2017-09-07T09:32:14.164Z,18.19
2017-09-07T09:33:14.921Z,18.25
2017-09-07T09:34:15.670Z,18.23
2017-09-07T09:35:16.432Z,18.33
2017-09-07T09:36:17.155Z,18.56
2017-09-07T09:37:17.888Z,18.59
2017-09-07T09:38:18.618Z,18.68
2017-09-07T09:39:19.353Z,18.83
2017-09-07T09:40:20.085Z,18.83
2017-09-07T09:41:20.816Z,18.58
2017-09-07T09:42:21.550Z,18.62
2017-09-07T09:43:22.282Z,18.60
2017-09-07T09:44:23.016Z,18.50
2017-09-07T09:45:23.767Z,18.62
2017-09-07T09:46:24.500Z,18.43
2017-09-07T09:47:25.239Z,18.41
2017-09-07T09:48:25.966Z,18.50
2017-09-07T09:49:26.699Z,18.66
2017-09-07T09:50:27.454Z,18.90
2017-09-07T09:51:28.187Z,19.24
2017-09-07T09:52:28.924Z,19.59
2017-09-07T09:53:29.657Z,19.64
2017-09-07T09:54:30.393Z,19.69
2017-09-07T09:55:31.128Z,19.91
2017-09-07T09:56:31.864Z,19.81
2017-09-07T09:57:32.599Z,19.34
2017-09-07T09:58:33.337Z,19.40
2017-09-07T09:59:34.070Z,19.30
2017-09-07T10:00:34.825Z,19.40
2017-09-07T10:01:35.563Z,19.76
2017-09-07T10:02:36.304Z,19.62
2017-09-07T10:03:37.039Z,19.51
2017-09-07T10:04:37.772Z,19.31
2017-09-07T10:05:38.526Z,18.99
2017-09-07T10:06:39.260Z,18.95
2017-09-07T10:07:39.994Z,18.73
2017-09-07T10:08:40.724Z,18.44
2017-09-07T10:09:41.454Z,18.19
2017-09-07T10:10:42.186Z,18.00
2017-09-07T10:11:42.917Z,17.82
2017-09-07T10:12:43.666Z,17.74
2017-09-07T10:13:44.399Z,17.56
2017-09-07T10:14:45.130Z,17.51
2017-09-07T10:15:45.860Z,17.52
2017-09-07T10:16:46.611Z,17.51
2017-09-07T10:17:47.344Z,17.54
2017-09-07T10:18:48.073Z,17.39
2017-09-07T10:19:48.804Z,17.42
2017-09-07T10:20:49.536Z,17.41
2017-09-07T10:21:50.266Z,17.51
2017-09-07T10:22:50.995Z,17.36
2017-09-07T10:23:51.746Z,17.46
2017-09-07T10:24:52.474Z,17.51
2017-09-07T10:25:53.219Z,17.60
2017-09-07T10:26:53.951Z,17.56
2017-09-07T10:27:54.679Z,17.64
2017-09-07T10:28:55.405Z,17.59
2017-09-07T10:29:56.154Z,17.56
2017-09-07T10:30:56.881Z,17.52
2017-09-07T10:31:57.611Z,17.46
2017-09-07T10:32:58.357Z,17.49
2017-09-07T10:33:59.091Z,17.48
2017-09-07T10:34:59.814Z,17.46
2017-09-07T10:36:00.563Z,17.48
2017-09-07T10:37:01.290Z,17.42
2017-09-07T10:38:02.037Z,17.34
2017-09-07T10:39:02.763Z,17.36
2017-09-07T10:40:03.493Z,17.42
2017-09-07T10:41:04.238Z,17.26
2017-09-07T10:42:04.964Z,17.20
2017-09-07T10:43:05.690Z,17.27
2017-09-07T10:44:06.419Z,17.30
2017-09-07T10:45:07.146Z,17.20
2017-09-07T10:46:07.875Z,17.22
2017-09-07T10:47:08.601Z,17.14
2017-09-07T10:48:09.325Z,17.16
2017-09-07T10:49:10.055Z,17.14
2017-09-07T10:50:10.785Z,17.09
2017-09-07T10:51:11.508Z,17.22
2017-09-07T10:52:12.256Z,17.22
2017-09-07T10:53:13.003Z,17.09
2017-09-07T10:54:13.728Z,17.09
2017-09-07T10:55:14.456Z,17.08
2017-09-07T10:56:15.185Z,17.05
2017-09-07T10:57:15.912Z,16.99
2017-09-07T10:58:16.637Z,17.04
2017-09-07T10:59:17.383Z,16.97
2017-09-07T11:00:18.108Z,17.04
2017-09-07T11:01:18.838Z,17.04
2017-09-07T11:02:19.586Z,16.99
2017-09-07T11:03:20.313Z,17.02
2017-09-07T11:04:21.040Z,17.01
2017-09-07T11:05:21.768Z,17.04
2017-09-07T11:06:22.497Z,16.91
2017-09-07T11:07:23.224Z,17.02
2017-09-07T11:08:23.950Z,17.02
2017-09-07T11:09:24.680Z,17.05
2017-09-07T11:10:25.406Z,17.12
2017-09-07T11:11:26.152Z,17.20
2017-09-07T11:12:26.881Z,17.24
2017-09-07T11:13:27.609Z,17.33
2017-09-07T11:14:28.336Z,17.38
2017-09-07T11:15:29.084Z,17.49
2017-09-07T11:16:29.834Z,17.60
2017-09-07T11:17:30.581Z,17.72
2017-09-07T11:18:31.311Z,17.80
2017-09-07T11:19:32.040Z,18.03
2017-09-07T11:20:32.768Z,18.08
2017-09-07T11:21:33.501Z,18.05
2017-09-07T11:22:34.232Z,18.37
2017-09-07T11:23:34.959Z,18.45
2017-09-07T11:24:35.693Z,18.59
2017-09-07T11:25:36.425Z,18.43
2017-09-07T11:26:37.150Z,18.60
2017-09-07T11:27:37.880Z,18.68
2017-09-07T11:28:38.610Z,18.60
2017-09-07T11:29:39.341Z,18.80
2017-09-07T11:30:40.092Z,18.83
2017-09-07T11:31:40.840Z,18.80
2017-09-07T11:32:41.574Z,19.14
2017-09-07T11:33:42.306Z,19.15
2017-09-07T11:34:43.038Z,19.15
2017-09-07T11:35:43.772Z,19.26
2017-09-07T11:36:44.508Z,19.73
2017-09-07T11:37:45.264Z,20.36
2017-09-07T11:38:46.001Z,20.72
2017-09-07T11:39:46.737Z,20.74
2017-09-07T11:40:47.478Z,20.67
2017-09-07T11:41:48.228Z,20.85
2017-09-07T11:42:48.969Z,21.33
2017-09-07T11:43:49.708Z,21.61
2017-09-07T11:44:50.469Z,21.43
2017-09-07T11:45:51.213Z,21.64
2017-09-07T11:46:51.952Z,21.80
2017-09-07T11:47:52.703Z,21.46
2017-09-07T11:48:53.440Z,21.69
2017-09-07T11:49:54.187Z,21.50
2017-09-07T11:50:54.933Z,21.00
2017-09-07T11:51:55.673Z,20.72
2017-09-07T11:52:56.413Z,20.60
2017-09-07T11:53:57.154Z,20.59
2017-09-07T11:54:57.893Z,20.75
2017-09-07T11:55:58.656Z,20.66
2017-09-07T11:56:59.395Z,20.75
2017-09-07T11:58:00.133Z,20.62
2017-09-07T11:59:00.871Z,20.70
2017-09-07T12:00:01.611Z,20.63
2017-09-07T12:01:02.373Z,20.37
2017-09-07T12:02:03.137Z,20.07
2017-09-07T12:03:03.878Z,20.31
2017-09-07T12:04:04.613Z,19.95
2017-09-07T12:05:05.376Z,19.76
2017-09-07T12:06:06.115Z,19.70
2017-09-07T12:07:06.876Z,19.34
2017-09-07T12:08:07.617Z,19.24
2017-09-07T12:09:08.356Z,19.11
2017-09-07T12:10:09.094Z,18.99
2017-09-07T12:11:09.830Z,18.90
2017-09-07T12:12:10.566Z,18.80
2017-09-07T12:13:11.303Z,18.73
2017-09-07T12:14:12.035Z,18.71
2017-09-07T12:15:12.766Z,18.68
2017-09-07T12:16:13.507Z,18.74
2017-09-07T12:17:14.232Z,18.59
2017-09-07T12:18:14.963Z,18.58
2017-09-07T12:19:15.691Z,18.41
2017-09-07T12:20:16.424Z,18.40
2017-09-07T12:21:17.155Z,18.34
2017-09-07T12:22:17.886Z,18.33
2017-09-07T12:23:18.617Z,18.38
2017-09-07T12:24:19.346Z,18.40
2017-09-07T12:25:20.076Z,18.41
2017-09-07T12:26:20.807Z,18.49
2017-09-07T12:27:21.533Z,18.44
2017-09-07T12:28:22.265Z,18.44
2017-09-07T12:29:22.992Z,18.40
2017-09-07T12:30:23.742Z,18.43
2017-09-07T12:31:24.479Z,18.41
2017-09-07T12:32:25.203Z,18.58
2017-09-07T12:33:25.934Z,18.52
2017-09-07T12:34:26.662Z,18.53
2017-09-07T12:35:27.415Z,18.45
2017-09-07T12:36:28.169Z,18.40
2017-09-07T12:37:28.958Z,18.44
2017-09-07T12:38:29.638Z,18.59
2017-09-07T12:39:30.370Z,18.56
2017-09-07T12:40:31.103Z,18.89
2017-09-07T12:41:31.862Z,19.30
2017-09-07T12:42:32.594Z,19.55
2017-09-07T12:43:33.330Z,19.92
2017-09-07T12:44:34.082Z,19.91
2017-09-07T12:45:34.816Z,20.34
2017-09-07T12:46:35.550Z,20.52
2017-09-07T12:47:36.311Z,20.31
2017-09-07T12:48:37.065Z,20.43
2017-09-07T12:49:37.798Z,20.32
2017-09-07T12:50:38.534Z,20.29
2017-09-07T12:51:39.269Z,20.14
2017-09-07T12:52:40.003Z,20.43
2017-09-07T12:53:40.738Z,20.69
2017-09-07T12:54:41.475Z,20.60
2017-09-07T12:55:42.232Z,20.84
2017-09-07T12:56:42.967Z,20.99
2017-09-07T12:57:43.708Z,21.17
2017-09-07T12:58:44.439Z,20.96
2017-09-07T12:59:45.173Z,20.80
2017-09-07T13:00:45.908Z,20.50
2017-09-07T13:01:46.642Z,20.29